23CN weather

Douthitt Strip
El Centro, California, United States

Public forecast

Using degrees Fahrenheit for public forecast. Weather courtesy of forecast.io.

METAR (pilot weather report)

Closest report is Imperial County Airport, 3.7 nm (6.8 km) NW. Retrieved 2019/08/26 06:53 UTC (38 minutes ago):

KIPL 260653Z AUTO 00000KT 10SM CLR 32/16 A2977 RMK AO2 SLP082 T03220156

TAF (pilot weather forecast)

Closest forecast is Imperial County Airport, 3.7 nm (6.8 km) NW. Retrieved 2019/08/26 06:22 UTC (1 hour ago):

TAF KIPL 260520Z 2606/2706 26006KT P6SM BKN250 FM260800 VRB05KT P6SM BKN250 FM261400 13006KT P6SM SCT250